Time;durP1;ratioP1;P1;durP2;ratioP2;P2;SDS_P1;SDS_P2;PMS_P1;PMS_P2;Temp;Humidity;BMP_temperature;BMP_pressure;BME280_temperature;BME280_humidity;BME280_pressure;Samples;Min_cycle;Max_cycle;Signal;HPM_P1;HPM_P2
2022/05/11 00:05:38;;;;;;;3.53;2.37;;;;;;;9.74;41.48;100340.13;31332808;28;20059;-83
2022/05/11 00:20:41;;;;;;;6.07;2.10;;;;;;;9.65;41.95;100337.16;31326585;28;20049;-84
2022/05/11 00:35:45;;;;;;;6.83;2.23;;;;;;;9.52;41.90;100333.41;31355358;28;20056;-81
2022/05/11 00:50:47;;;;;;;4.17;1.97;;;;;;;9.46;42.10;100332.31;31349212;28;20065;-83
2022/05/11 01:05:49;;;;;;;5.97;2.30;;;;;;;9.25;42.60;100330.63;31300074;28;20735;-82
2022/05/11 01:21:12;;;;;;;5.20;2.27;;;;;;;9.28;43.23;100326.34;31344133;28;20141;-82
2022/05/11 01:36:26;;;;;;;4.23;2.10;;;;;;;9.01;43.52;100332.41;31310525;28;20055;-83
2022/05/11 01:51:28;;;;;;;5.27;2.40;;;;;;;8.78;43.16;100334.94;31286395;28;20148;-83
2022/05/11 02:21:50;;;;;;;2.70;1.63;;;;;;;8.53;44.26;100324.31;31324103;28;20083;-81
2022/05/11 02:36:52;;;;;;;2.20;1.37;;;;;;;8.61;44.55;100311.50;31311703;28;20135;-82
2022/05/11 02:51:55;;;;;;;4.17;1.90;;;;;;;8.73;44.49;100313.75;31333317;28;20088;-82
2022/05/11 03:06:57;;;;;;;4.57;2.10;;;;;;;8.80;44.31;100310.94;31344120;28;20049;-82
2022/05/11 03:21:59;;;;;;;4.47;2.20;;;;;;;9.16;44.61;100328.41;31339630;28;20049;-80
2022/05/11 03:37:01;;;;;;;6.30;2.73;;;;;;;9.55;44.46;100332.59;31360039;28;20049;-82
2022/05/11 03:52:05;;;;;;;9.37;3.53;;;;;;;9.93;43.51;100339.47;31340977;28;20045;-81
2022/05/11 04:07:11;;;;;;;14.57;4.77;;;;;;;10.72;43.51;100346.50;31325830;28;20410;-81
2022/05/11 04:22:13;;;;;;;8.27;4.03;;;;;;;11.47;42.95;100352.13;31346709;28;20048;-81
2022/05/11 04:37:17;;;;;;;7.00;3.90;;;;;;;12.19;41.39;100367.78;31320047;28;20515;-82
2022/05/11 04:52:20;;;;;;;4.83;1.77;;;;;;;12.83;38.77;100360.84;31300400;28;20132;-82
2022/05/11 05:07:22;;;;;;;3.87;1.53;;;;;;;13.69;37.18;100362.88;31324828;28;20045;-81
2022/05/11 05:22:24;;;;;;;2.23;1.03;;;;;;;14.43;33.91;100364.59;31348319;28;20053;-81
2022/05/11 05:37:26;;;;;;;3.03;1.57;;;;;;;15.13;32.19;100363.47;31306837;28;20506;-82
2022/05/11 05:52:28;;;;;;;3.00;1.17;;;;;;;15.71;30.85;100376.72;31349493;28;20061;-79
2022/05/11 06:07:31;;;;;;;1.93;1.20;;;;;;;16.05;29.94;100364.91;31321069;28;20149;-79
2022/05/11 06:22:32;;;;;;;2.40;1.23;;;;;;;16.34;29.80;100376.28;31335238;28;20053;-83
2022/05/11 06:37:54;;;;;;;6.53;1.70;;;;;;;16.57;29.11;100378.47;31329926;28;20053;-80
2022/05/11 06:52:57;;;;;;;13.98;1.67;;;;;;;16.82;28.73;100371.25;31359909;28;20141;-79
2022/05/11 07:08:00;;;;;;;2.43;1.30;;;;;;;17.01;28.79;100370.06;31353227;28;20049;-80
2022/05/11 07:23:04;;;;;;;4.90;1.52;;;;;;;17.35;28.02;100358.81;31345124;28;20096;-84
2022/05/11 07:38:11;;;;;;;7.37;1.67;;;;;;;18.04;26.88;100358.09;31347423;28;20104;-82
2022/05/11 07:53:13;;;;;;;2.35;1.20;;;;;;;19.00;26.41;100333.44;31339837;28;20052;-74
2022/05/11 08:08:15;;;;;;;3.25;1.30;;;;;;;19.79;24.64;100328.16;31363145;28;20383;-77
2022/05/11 08:23:17;;;;;;;2.60;1.33;;;;;;;19.93;24.42;100335.63;31325950;28;20088;-77
2022/05/11 08:38:21;;;;;;;8.23;1.38;;;;;;;20.42;24.63;100306.56;31316609;28;20068;-72
2022/05/11 08:53:37;;;;;;;2.72;1.60;;;;;;;21.04;23.04;100277.69;31352734;28;20068;-77
2022/05/11 09:08:40;;;;;;;2.95;1.55;;;;;;;21.26;23.45;100280.72;31318175;28;20045;-74
2022/05/11 09:23:43;;;;;;;2.03;1.23;;;;;;;22.00;23.42;100272.53;31338223;28;20368;-75
2022/05/11 09:38:46;;;;;;;4.82;1.75;;;;;;;22.36;22.39;100259.94;31285086;28;20495;-77
2022/05/11 09:54:02;;;;;;;3.42;2.08;;;;;;;22.91;23.70;100252.38;31333270;28;20410;-79
2022/05/11 10:09:28;;;;;;;5.80;1.10;;;;;;;23.35;23.01;100262.75;31342897;28;20064;-82
2022/05/11 10:24:48;;;;;;;6.13;1.42;;;;;;;23.63;21.48;100237.81;31311744;28;20102;-82
2022/05/11 10:40:02;;;;;;;3.10;1.58;;;;;;;23.97;22.51;100238.53;31289421;28;20091;-82
2022/05/11 10:55:26;;;;;;;2.75;1.42;;;;;;;23.81;21.80;100234.53;31323728;28;20059;-81
2022/05/11 11:10:36;;;;;;;1.98;1.30;;;;;;;24.50;22.06;100217.97;31323907;28;20387;-83
2022/05/11 11:25:51;;;;;;;4.30;1.52;;;;;;;22.36;23.66;100215.69;31318117;28;20099;-85
2022/05/11 11:41:10;;;;;;;3.58;1.77;;;;;;;21.19;25.05;100212.13;31335885;28;20557;-80
2022/05/11 11:56:24;;;;;;;5.03;1.50;;;;;;;20.60;25.55;100184.94;31338136;28;20065;-79
2022/05/11 12:26:55;;;;;;;;;;;;;;;19.98;27.08;100191.69;31338283;28;20049;-78
2022/05/11 12:41:57;;;;;;;3.95;1.58;;;;;;;19.87;26.70;100180.50;31303092;28;19920;-75
2022/05/11 12:57:08;;;;;;;5.15;1.40;;;;;;;19.69;26.99;100178.00;31320429;28;20426;-75
2022/05/11 13:12:12;;;;;;;4.10;1.95;;;;;;;19.39;27.23;100175.28;31319051;28;20861;-75
2022/05/11 13:27:46;;;;;;;3.88;1.58;;;;;;;19.12;27.52;100167.38;31321453;28;20115;-76
2022/05/11 13:42:48;;;;;;;3.80;1.60;;;;;;;19.02;27.98;100168.69;31332560;28;20471;-77
2022/05/11 13:57:50;;;;;;;11.70;6.22;;;;;;;18.98;27.70;100173.59;31229112;28;20069;-74
2022/05/11 14:12:52;;;;;;;3.95;1.60;;;;;;;18.66;27.91;100178.78;31237668;28;20412;-83
2022/05/11 14:27:55;;;;;;;6.35;1.42;;;;;;;18.65;28.36;100176.53;31193537;28;20076;-80
2022/05/11 14:42:58;;;;;;;5.03;1.50;;;;;;;18.56;28.37;100166.34;31193968;28;20050;-76
2022/05/11 15:13:30;;;;;;;2.38;1.75;;;;;;;18.05;29.04;100161.84;31371054;28;20083;-81
2022/05/11 15:28:32;;;;;;;3.10;1.50;;;;;;;17.79;28.68;100160.78;31361170;28;20048;-83
2022/05/11 15:43:37;;;;;;;7.40;1.45;;;;;;;17.65;29.42;100172.44;31329283;28;20514;-78
2022/05/11 15:58:39;;;;;;;6.55;1.63;;;;;;;17.47;29.36;100189.72;31381237;28;20041;-80
2022/05/11 16:13:41;;;;;;;11.95;3.83;;;;;;;17.37;29.49;100196.47;31362574;28;20414;-78
2022/05/11 16:28:44;;;;;;;5.47;2.10;;;;;;;17.31;29.45;100203.78;31351649;28;20041;-81
2022/05/11 16:43:47;;;;;;;3.70;1.80;;;;;;;17.01;30.25;100220.00;31366173;28;20136;-81
2022/05/11 16:58:49;;;;;;;4.75;2.95;;;;;;;16.78;30.70;100233.56;31375570;28;20052;-83
2022/05/11 17:13:51;;;;;;;3.72;2.33;;;;;;;16.46;31.58;100246.63;31337960;28;20095;-82
2022/05/11 17:29:00;;;;;;;5.35;2.50;;;;;;;16.14;32.14;100256.16;31366503;28;20560;-82
2022/05/11 17:44:03;;;;;;;9.27;2.05;;;;;;;15.93;32.12;100279.66;31342956;28;20057;-81
2022/05/11 17:59:05;;;;;;;3.77;1.90;;;;;;;15.70;32.57;100285.66;31295384;28;20049;-84
2022/05/11 18:14:07;;;;;;;3.00;1.60;;;;;;;15.52;32.85;100289.03;31347777;28;20564;-81
2022/05/11 18:29:10;;;;;;;2.67;1.53;;;;;;;15.29;33.39;100294.94;31316992;28;20450;-83
2022/05/11 18:44:12;;;;;;;3.53;1.83;;;;;;;15.20;33.77;100298.38;31345977;28;20143;-82
2022/05/11 18:59:14;;;;;;;3.80;2.07;;;;;;;15.10;34.06;100309.69;31300538;28;20049;-82
2022/05/11 19:14:16;;;;;;;3.40;1.60;;;;;;;14.99;34.15;100304.59;31335771;28;20482;-81
2022/05/11 19:29:18;;;;;;;8.60;3.13;;;;;;;14.73;34.87;100297.69;31347742;28;20095;-81
2022/05/11 19:44:21;;;;;;;4.97;2.53;;;;;;;14.06;36.29;100319.69;31356836;28;20473;-83
2022/05/11 19:59:23;;;;;;;20.93;3.97;;;;;;;13.67;37.95;100316.19;31375174;28;20057;-83
2022/05/11 20:14:26;;;;;;;4.83;1.73;;;;;;;13.34;37.69;100329.16;31363091;28;20066;-82
2022/05/11 20:29:29;;;;;;;4.97;2.20;;;;;;;13.13;38.63;100346.06;31381902;28;20037;-83
2022/05/11 20:44:31;;;;;;;9.10;4.03;;;;;;;12.71;39.87;100342.47;31385251;28;20061;-82
2022/05/11 20:59:34;;;;;;;15.73;9.53;;;;;;;12.70;40.27;100351.84;31378272;28;20049;-82
2022/05/11 21:14:36;;;;;;;12.07;6.90;;;;;;;12.67;40.19;100347.25;31374506;28;20048;-81
2022/05/11 21:29:38;;;;;;;8.50;3.67;;;;;;;12.42;40.00;100359.47;31376627;28;20044;-83
2022/05/11 21:44:40;;;;;;;6.07;2.50;;;;;;;12.19;40.84;100354.94;31361736;28;20180;-82
2022/05/11 21:59:43;;;;;;;4.67;2.20;;;;;;;11.79;42.09;100361.66;31370852;28;20114;-81
2022/05/11 22:14:45;;;;;;;6.00;2.63;;;;;;;11.57;42.09;100362.03;31333037;28;20103;-83
2022/05/11 22:29:47;;;;;;;9.00;3.20;;;;;;;11.43;42.97;100362.31;31339745;28;20044;-82
2022/05/11 22:44:49;;;;;;;5.77;2.80;;;;;;;11.27;43.35;100354.84;31347003;28;20053;-81
2022/05/11 22:59:52;;;;;;;4.73;2.40;;;;;;;11.14;44.58;100356.63;31355465;28;20044;-81
2022/05/11 23:14:54;;;;;;;7.23;2.67;;;;;;;10.99;44.80;100344.50;31315195;28;20053;-85
2022/05/11 23:29:56;;;;;;;4.57;2.53;;;;;;;10.89;45.13;100340.00;31345682;28;20052;-83
2022/05/11 23:44:59;;;;;;;7.27;2.37;;;;;;;10.83;44.57;100345.16;31341511;28;20111;-83
